sensor_id;sensor_type;location;lat;lon;timestamp;P1;durP1;ratioP1;P2;durP2;ratioP2
14858;SDS011;7521;51.700;6.874;2023-08-06T00:00:39;10.00;;;7.33;;
14858;SDS011;7521;51.700;6.874;2023-08-06T00:03:44;8.00;;;6.70;;
14858;SDS011;7521;51.700;6.874;2023-08-06T00:06:49;8.73;;;7.93;;
14858;SDS011;7521;51.700;6.874;2023-08-06T00:09:54;9.43;;;7.18;;
14858;SDS011;7521;51.700;6.874;2023-08-06T00:12:59;9.48;;;7.55;;
14858;SDS011;7521;51.700;6.874;2023-08-06T00:16:09;9.48;;;8.45;;
14858;SDS011;7521;51.700;6.874;2023-08-06T00:19:14;9.63;;;7.43;;
14858;SDS011;7521;51.700;6.874;2023-08-06T00:22:19;8.00;;;7.20;;
14858;SDS011;7521;51.700;6.874;2023-08-06T00:25:24;9.73;;;8.07;;
14858;SDS011;7521;51.700;6.874;2023-08-06T00:28:29;10.83;;;8.67;;
14858;SDS011;7521;51.700;6.874;2023-08-06T00:31:35;8.40;;;7.40;;
14858;SDS011;7521;51.700;6.874;2023-08-06T00:34:40;10.47;;;8.70;;
14858;SDS011;7521;51.700;6.874;2023-08-06T00:37:45;9.73;;;7.80;;
14858;SDS011;7521;51.700;6.874;2023-08-06T00:40:51;8.77;;;7.00;;
14858;SDS011;7521;51.700;6.874;2023-08-06T00:43:56;8.63;;;7.17;;
14858;SDS011;7521;51.700;6.874;2023-08-06T00:47:01;9.23;;;8.07;;
14858;SDS011;7521;51.700;6.874;2023-08-06T00:50:07;13.80;;;9.13;;
14858;SDS011;7521;51.700;6.874;2023-08-06T00:53:12;13.67;;;9.60;;
14858;SDS011;7521;51.700;6.874;2023-08-06T00:56:18;11.97;;;9.43;;
14858;SDS011;7521;51.700;6.874;2023-08-06T00:59:23;14.03;;;9.20;;
14858;SDS011;7521;51.700;6.874;2023-08-06T01:02:29;13.43;;;10.50;;
14858;SDS011;7521;51.700;6.874;2023-08-06T01:05:34;10.50;;;9.18;;
14858;SDS011;7521;51.700;6.874;2023-08-06T01:12:17;14.57;;;11.10;;
14858;SDS011;7521;51.700;6.874;2023-08-06T01:15:24;14.33;;;10.67;;
14858;SDS011;7521;51.700;6.874;2023-08-06T01:18:32;17.30;;;10.93;;
14858;SDS011;7521;51.700;6.874;2023-08-06T01:21:38;11.30;;;10.13;;
14858;SDS011;7521;51.700;6.874;2023-08-06T01:24:44;11.02;;;9.40;;
14858;SDS011;7521;51.700;6.874;2023-08-06T01:27:51;11.97;;;9.10;;
14858;SDS011;7521;51.700;6.874;2023-08-06T01:31:01;16.27;;;10.07;;
14858;SDS011;7521;51.700;6.874;2023-08-06T01:34:17;12.90;;;9.73;;
14858;SDS011;7521;51.700;6.874;2023-08-06T01:37:23;15.90;;;10.10;;
14858;SDS011;7521;51.700;6.874;2023-08-06T01:40:28;10.93;;;9.10;;
14858;SDS011;7521;51.700;6.874;2023-08-06T01:43:34;9.83;;;8.60;;
14858;SDS011;7521;51.700;6.874;2023-08-06T01:46:39;12.20;;;9.67;;
14858;SDS011;7521;51.700;6.874;2023-08-06T01:49:44;12.77;;;10.63;;
14858;SDS011;7521;51.700;6.874;2023-08-06T01:52:50;18.40;;;11.93;;
14858;SDS011;7521;51.700;6.874;2023-08-06T01:55:55;11.33;;;9.70;;
14858;SDS011;7521;51.700;6.874;2023-08-06T01:59:00;11.63;;;10.30;;
14858;SDS011;7521;51.700;6.874;2023-08-06T02:02:05;12.43;;;9.07;;
14858;SDS011;7521;51.700;6.874;2023-08-06T02:05:10;11.00;;;8.45;;
14858;SDS011;7521;51.700;6.874;2023-08-06T02:08:15;11.48;;;9.63;;
14858;SDS011;7521;51.700;6.874;2023-08-06T02:11:21;11.45;;;8.90;;
14858;SDS011;7521;51.700;6.874;2023-08-06T02:14:26;11.05;;;8.18;;
14858;SDS011;7521;51.700;6.874;2023-08-06T02:17:31;10.32;;;8.43;;
14858;SDS011;7521;51.700;6.874;2023-08-06T02:20:36;10.60;;;8.55;;
14858;SDS011;7521;51.700;6.874;2023-08-06T02:23:41;11.03;;;8.50;;
14858;SDS011;7521;51.700;6.874;2023-08-06T02:26:46;10.65;;;8.25;;
14858;SDS011;7521;51.700;6.874;2023-08-06T02:29:54;10.67;;;8.80;;
14858;SDS011;7521;51.700;6.874;2023-08-06T02:32:59;10.70;;;8.80;;
14858;SDS011;7521;51.700;6.874;2023-08-06T02:36:04;11.55;;;8.50;;
14858;SDS011;7521;51.700;6.874;2023-08-06T02:39:09;11.02;;;9.40;;
14858;SDS011;7521;51.700;6.874;2023-08-06T02:42:14;9.10;;;8.10;;
14858;SDS011;7521;51.700;6.874;2023-08-06T02:45:20;11.17;;;8.73;;
14858;SDS011;7521;51.700;6.874;2023-08-06T02:48:25;9.88;;;8.48;;
14858;SDS011;7521;51.700;6.874;2023-08-06T02:51:30;10.53;;;7.67;;
14858;SDS011;7521;51.700;6.874;2023-08-06T02:54:35;10.43;;;8.25;;
14858;SDS011;7521;51.700;6.874;2023-08-06T02:57:40;9.07;;;7.65;;
14858;SDS011;7521;51.700;6.874;2023-08-06T03:00:45;10.23;;;7.78;;
14858;SDS011;7521;51.700;6.874;2023-08-06T03:03:51;11.30;;;8.83;;
14858;SDS011;7521;51.700;6.874;2023-08-06T03:06:56;13.17;;;7.93;;
14858;SDS011;7521;51.700;6.874;2023-08-06T03:10:02;10.10;;;7.67;;
14858;SDS011;7521;51.700;6.874;2023-08-06T03:13:07;12.73;;;8.50;;
14858;SDS011;7521;51.700;6.874;2023-08-06T03:16:13;8.07;;;7.27;;
14858;SDS011;7521;51.700;6.874;2023-08-06T03:19:18;9.07;;;8.13;;
14858;SDS011;7521;51.700;6.874;2023-08-06T03:22:23;9.52;;;7.63;;
14858;SDS011;7521;51.700;6.874;2023-08-06T03:25:28;8.40;;;7.40;;
14858;SDS011;7521;51.700;6.874;2023-08-06T03:28:33;9.13;;;8.18;;
14858;SDS011;7521;51.700;6.874;2023-08-06T03:31:39;9.13;;;7.10;;
14858;SDS011;7521;51.700;6.874;2023-08-06T03:34:44;9.25;;;7.65;;
14858;SDS011;7521;51.700;6.874;2023-08-06T03:37:49;9.20;;;7.53;;
14858;SDS011;7521;51.700;6.874;2023-08-06T03:40:54;9.33;;;7.17;;
14858;SDS011;7521;51.700;6.874;2023-08-06T03:44:00;7.20;;;6.50;;
14858;SDS011;7521;51.700;6.874;2023-08-06T03:47:07;9.27;;;7.50;;
14858;SDS011;7521;51.700;6.874;2023-08-06T03:50:12;8.55;;;7.00;;
14858;SDS011;7521;51.700;6.874;2023-08-06T03:53:18;7.50;;;6.80;;
14858;SDS011;7521;51.700;6.874;2023-08-06T03:56:23;8.82;;;6.97;;
14858;SDS011;7521;51.700;6.874;2023-08-06T03:59:28;10.70;;;7.10;;
14858;SDS011;7521;51.700;6.874;2023-08-06T04:02:33;7.68;;;6.25;;
14858;SDS011;7521;51.700;6.874;2023-08-06T04:05:38;8.27;;;6.00;;
14858;SDS011;7521;51.700;6.874;2023-08-06T04:08:43;6.50;;;5.90;;
14858;SDS011;7521;51.700;6.874;2023-08-06T04:11:49;7.22;;;6.50;;
14858;SDS011;7521;51.700;6.874;2023-08-06T04:14:54;8.68;;;6.10;;
14858;SDS011;7521;51.700;6.874;2023-08-06T04:17:59;7.77;;;5.87;;
14858;SDS011;7521;51.700;6.874;2023-08-06T04:21:04;7.05;;;6.35;;
14858;SDS011;7521;51.700;6.874;2023-08-06T04:24:10;9.03;;;5.83;;
14858;SDS011;7521;51.700;6.874;2023-08-06T04:27:15;6.50;;;5.83;;
14858;SDS011;7521;51.700;6.874;2023-08-06T04:30:21;8.23;;;6.10;;
14858;SDS011;7521;51.700;6.874;2023-08-06T04:33:26;9.20;;;5.80;;
14858;SDS011;7521;51.700;6.874;2023-08-06T04:36:31;9.10;;;6.10;;
14858;SDS011;7521;51.700;6.874;2023-08-06T04:39:36;7.97;;;6.43;;
14858;SDS011;7521;51.700;6.874;2023-08-06T04:42:41;7.72;;;6.60;;
14858;SDS011;7521;51.700;6.874;2023-08-06T04:45:47;7.80;;;6.35;;
14858;SDS011;7521;51.700;6.874;2023-08-06T04:48:52;9.63;;;6.83;;
14858;SDS011;7521;51.700;6.874;2023-08-06T04:51:57;7.18;;;6.38;;
14858;SDS011;7521;51.700;6.874;2023-08-06T04:55:03;9.13;;;5.88;;
14858;SDS011;7521;51.700;6.874;2023-08-06T04:58:12;7.53;;;5.80;;
14858;SDS011;7521;51.700;6.874;2023-08-06T05:01:17;9.17;;;6.07;;
14858;SDS011;7521;51.700;6.874;2023-08-06T05:04:22;9.33;;;6.10;;
14858;SDS011;7521;51.700;6.874;2023-08-06T05:07:28;7.57;;;6.10;;
14858;SDS011;7521;51.700;6.874;2023-08-06T05:10:33;6.55;;;5.85;;
14858;SDS011;7521;51.700;6.874;2023-08-06T05:13:38;6.37;;;5.77;;
14858;SDS011;7521;51.700;6.874;2023-08-06T05:16:43;8.73;;;5.50;;
14858;SDS011;7521;51.700;6.874;2023-08-06T05:19:48;7.40;;;6.15;;
14858;SDS011;7521;51.700;6.874;2023-08-06T05:22:53;5.88;;;5.28;;
14858;SDS011;7521;51.700;6.874;2023-08-06T05:25:58;8.50;;;5.78;;
14858;SDS011;7521;51.700;6.874;2023-08-06T05:29:04;6.60;;;5.53;;
14858;SDS011;7521;51.700;6.874;2023-08-06T05:32:09;8.95;;;6.38;;
14858;SDS011;7521;51.700;6.874;2023-08-06T05:35:15;8.10;;;5.47;;
14858;SDS011;7521;51.700;6.874;2023-08-06T05:38:20;7.28;;;6.30;;
14858;SDS011;7521;51.700;6.874;2023-08-06T05:41:25;7.80;;;6.07;;
14858;SDS011;7521;51.700;6.874;2023-08-06T05:44:30;8.30;;;6.35;;
14858;SDS011;7521;51.700;6.874;2023-08-06T05:47:35;8.18;;;5.88;;
14858;SDS011;7521;51.700;6.874;2023-08-06T05:50:40;6.03;;;4.90;;
14858;SDS011;7521;51.700;6.874;2023-08-06T05:53:46;11.10;;;5.83;;
14858;SDS011;7521;51.700;6.874;2023-08-06T05:56:52;6.83;;;6.10;;
14858;SDS011;7521;51.700;6.874;2023-08-06T05:59:57;6.77;;;5.10;;
14858;SDS011;7521;51.700;6.874;2023-08-06T06:03:02;5.85;;;5.35;;
14858;SDS011;7521;51.700;6.874;2023-08-06T06:06:07;8.38;;;6.40;;
14858;SDS011;7521;51.700;6.874;2023-08-06T06:09:12;8.63;;;5.45;;
14858;SDS011;7521;51.700;6.874;2023-08-06T06:12:17;9.80;;;5.97;;
14858;SDS011;7521;51.700;6.874;2023-08-06T06:15:23;7.00;;;5.53;;
14858;SDS011;7521;51.700;6.874;2023-08-06T06:18:28;6.25;;;5.57;;
14858;SDS011;7521;51.700;6.874;2023-08-06T06:21:33;8.10;;;5.90;;
14858;SDS011;7521;51.700;6.874;2023-08-06T06:24:38;9.40;;;5.55;;
14858;SDS011;7521;51.700;6.874;2023-08-06T06:27:43;6.37;;;5.33;;
14858;SDS011;7521;51.700;6.874;2023-08-06T06:30:49;8.17;;;5.33;;
14858;SDS011;7521;51.700;6.874;2023-08-06T06:33:54;8.90;;;5.40;;
14858;SDS011;7521;51.700;6.874;2023-08-06T06:36:59;5.00;;;4.50;;
14858;SDS011;7521;51.700;6.874;2023-08-06T06:40:04;4.75;;;4.25;;
14858;SDS011;7521;51.700;6.874;2023-08-06T06:43:10;5.83;;;5.10;;
14858;SDS011;7521;51.700;6.874;2023-08-06T06:46:15;8.23;;;4.28;;
14858;SDS011;7521;51.700;6.874;2023-08-06T06:49:20;4.55;;;4.15;;
14858;SDS011;7521;51.700;6.874;2023-08-06T06:52:25;5.55;;;4.38;;
14858;SDS011;7521;51.700;6.874;2023-08-06T06:55:30;5.85;;;3.00;;
14858;SDS011;7521;51.700;6.874;2023-08-06T06:58:35;3.90;;;2.80;;
14858;SDS011;7521;51.700;6.874;2023-08-06T07:01:41;4.60;;;2.67;;
14858;SDS011;7521;51.700;6.874;2023-08-06T07:04:46;3.08;;;2.55;;
14858;SDS011;7521;51.700;6.874;2023-08-06T07:07:52;3.63;;;1.80;;
14858;SDS011;7521;51.700;6.874;2023-08-06T07:11:03;6.63;;;2.50;;
14858;SDS011;7521;51.700;6.874;2023-08-06T07:14:09;3.50;;;2.23;;
14858;SDS011;7521;51.700;6.874;2023-08-06T07:17:14;3.38;;;1.90;;
14858;SDS011;7521;51.700;6.874;2023-08-06T07:20:19;3.63;;;2.00;;
14858;SDS011;7521;51.700;6.874;2023-08-06T07:23:25;4.45;;;2.08;;
14858;SDS011;7521;51.700;6.874;2023-08-06T07:26:31;2.33;;;1.80;;
14858;SDS011;7521;51.700;6.874;2023-08-06T07:29:36;3.42;;;1.63;;
14858;SDS011;7521;51.700;6.874;2023-08-06T07:32:41;4.47;;;1.77;;
14858;SDS011;7521;51.700;6.874;2023-08-06T07:35:46;2.70;;;1.80;;
14858;SDS011;7521;51.700;6.874;2023-08-06T07:38:51;9.95;;;2.58;;
14858;SDS011;7521;51.700;6.874;2023-08-06T07:42:00;5.53;;;3.30;;
14858;SDS011;7521;51.700;6.874;2023-08-06T07:45:07;4.90;;;3.27;;
14858;SDS011;7521;51.700;6.874;2023-08-06T07:48:15;4.37;;;2.80;;
14858;SDS011;7521;51.700;6.874;2023-08-06T07:51:20;7.00;;;3.13;;
14858;SDS011;7521;51.700;6.874;2023-08-06T07:54:25;4.40;;;3.00;;
14858;SDS011;7521;51.700;6.874;2023-08-06T07:57:31;7.77;;;5.20;;
14858;SDS011;7521;51.700;6.874;2023-08-06T08:00:36;3.27;;;2.33;;
14858;SDS011;7521;51.700;6.874;2023-08-06T08:03:41;6.53;;;3.08;;
14858;SDS011;7521;51.700;6.874;2023-08-06T08:06:46;4.40;;;2.85;;
14858;SDS011;7521;51.700;6.874;2023-08-06T08:09:52;4.07;;;2.50;;
14858;SDS011;7521;51.700;6.874;2023-08-06T08:12:57;4.93;;;2.83;;
14858;SDS011;7521;51.700;6.874;2023-08-06T08:16:03;5.50;;;3.70;;
14858;SDS011;7521;51.700;6.874;2023-08-06T08:19:08;3.80;;;3.40;;
14858;SDS011;7521;51.700;6.874;2023-08-06T08:22:13;4.65;;;3.33;;
14858;SDS011;7521;51.700;6.874;2023-08-06T08:25:19;4.07;;;3.23;;
14858;SDS011;7521;51.700;6.874;2023-08-06T08:28:24;5.07;;;3.40;;
14858;SDS011;7521;51.700;6.874;2023-08-06T08:31:29;3.50;;;3.17;;
14858;SDS011;7521;51.700;6.874;2023-08-06T08:34:34;4.10;;;3.70;;
14858;SDS011;7521;51.700;6.874;2023-08-06T08:37:39;4.97;;;4.50;;
14858;SDS011;7521;51.700;6.874;2023-08-06T08:40:45;6.83;;;6.30;;
14858;SDS011;7521;51.700;6.874;2023-08-06T08:43:52;7.27;;;6.27;;
14858;SDS011;7521;51.700;6.874;2023-08-06T08:46:57;9.57;;;6.97;;
14858;SDS011;7521;51.700;6.874;2023-08-06T08:50:03;7.40;;;6.72;;
14858;SDS011;7521;51.700;6.874;2023-08-06T08:53:10;8.33;;;7.00;;
14858;SDS011;7521;51.700;6.874;2023-08-06T08:56:16;10.30;;;8.23;;
14858;SDS011;7521;51.700;6.874;2023-08-06T08:59:21;8.87;;;8.07;;
14858;SDS011;7521;51.700;6.874;2023-08-06T09:02:28;9.38;;;8.18;;
14858;SDS011;7521;51.700;6.874;2023-08-06T09:05:34;8.53;;;7.67;;
14858;SDS011;7521;51.700;6.874;2023-08-06T09:08:45;11.83;;;8.40;;
14858;SDS011;7521;51.700;6.874;2023-08-06T09:11:52;8.90;;;8.00;;
14858;SDS011;7521;51.700;6.874;2023-08-06T09:14:57;9.53;;;8.73;;
14858;SDS011;7521;51.700;6.874;2023-08-06T09:18:08;8.13;;;7.43;;
14858;SDS011;7521;51.700;6.874;2023-08-06T09:21:14;9.87;;;8.17;;
14858;SDS011;7521;51.700;6.874;2023-08-06T09:24:21;8.10;;;7.40;;
14858;SDS011;7521;51.700;6.874;2023-08-06T09:27:27;8.27;;;6.97;;
14858;SDS011;7521;51.700;6.874;2023-08-06T09:30:33;7.65;;;6.85;;
14858;SDS011;7521;51.700;6.874;2023-08-06T09:33:38;6.70;;;6.00;;
14858;SDS011;7521;51.700;6.874;2023-08-06T09:36:51;7.37;;;6.07;;
14858;SDS011;7521;51.700;6.874;2023-08-06T09:39:56;5.30;;;4.60;;
14858;SDS011;7521;51.700;6.874;2023-08-06T09:43:01;5.72;;;5.22;;
14858;SDS011;7521;51.700;6.874;2023-08-06T09:46:13;6.80;;;5.30;;
14858;SDS011;7521;51.700;6.874;2023-08-06T09:49:19;7.23;;;6.43;;
14858;SDS011;7521;51.700;6.874;2023-08-06T09:52:25;7.73;;;7.00;;
14858;SDS011;7521;51.700;6.874;2023-08-06T09:55:30;8.17;;;7.13;;
14858;SDS011;7521;51.700;6.874;2023-08-06T09:58:36;6.70;;;6.10;;
14858;SDS011;7521;51.700;6.874;2023-08-06T10:01:42;6.70;;;6.10;;
14858;SDS011;7521;51.700;6.874;2023-08-06T10:04:48;6.57;;;5.70;;
14858;SDS011;7521;51.700;6.874;2023-08-06T10:07:53;6.38;;;5.78;;
14858;SDS011;7521;51.700;6.874;2023-08-06T10:11:01;6.83;;;5.93;;
14858;SDS011;7521;51.700;6.874;2023-08-06T10:14:08;6.87;;;6.17;;
14858;SDS011;7521;51.700;6.874;2023-08-06T10:17:14;6.50;;;5.70;;
14858;SDS011;7521;51.700;6.874;2023-08-06T10:20:20;6.00;;;5.50;;
14858;SDS011;7521;51.700;6.874;2023-08-06T10:23:32;8.07;;;6.10;;
14858;SDS011;7521;51.700;6.874;2023-08-06T10:26:38;7.70;;;5.63;;
14858;SDS011;7521;51.700;6.874;2023-08-06T10:29:43;6.25;;;5.68;;
14858;SDS011;7521;51.700;6.874;2023-08-06T10:32:49;6.47;;;5.85;;
14858;SDS011;7521;51.700;6.874;2023-08-06T10:35:55;7.53;;;5.13;;
14858;SDS011;7521;51.700;6.874;2023-08-06T10:39:05;5.80;;;5.03;;
14858;SDS011;7521;51.700;6.874;2023-08-06T10:42:19;5.25;;;4.75;;
14858;SDS011;7521;51.700;6.874;2023-08-06T10:45:24;6.60;;;4.70;;
14858;SDS011;7521;51.700;6.874;2023-08-06T10:48:34;5.40;;;4.80;;
14858;SDS011;7521;51.700;6.874;2023-08-06T10:51:40;6.53;;;4.70;;
14858;SDS011;7521;51.700;6.874;2023-08-06T10:54:45;5.33;;;4.73;;
14858;SDS011;7521;51.700;6.874;2023-08-06T10:57:51;4.20;;;3.77;;
14858;SDS011;7521;51.700;6.874;2023-08-06T11:00:56;6.83;;;4.17;;
14858;SDS011;7521;51.700;6.874;2023-08-06T11:04:02;4.30;;;3.90;;
14858;SDS011;7521;51.700;6.874;2023-08-06T11:07:07;5.53;;;3.70;;
14858;SDS011;7521;51.700;6.874;2023-08-06T11:10:12;4.13;;;3.83;;
14858;SDS011;7521;51.700;6.874;2023-08-06T11:13:18;6.10;;;4.03;;
14858;SDS011;7521;51.700;6.874;2023-08-06T11:16:23;4.43;;;3.10;;
14858;SDS011;7521;51.700;6.874;2023-08-06T11:19:31;3.10;;;2.80;;
14858;SDS011;7521;51.700;6.874;2023-08-06T11:22:37;3.50;;;3.20;;
14858;SDS011;7521;51.700;6.874;2023-08-06T11:25:45;4.97;;;3.20;;
14858;SDS011;7521;51.700;6.874;2023-08-06T11:28:51;4.80;;;3.90;;
14858;SDS011;7521;51.700;6.874;2023-08-06T11:32:03;4.27;;;3.90;;
14858;SDS011;7521;51.700;6.874;2023-08-06T11:35:11;4.90;;;4.17;;
14858;SDS011;7521;51.700;6.874;2023-08-06T11:38:16;4.97;;;4.47;;
14858;SDS011;7521;51.700;6.874;2023-08-06T11:41:22;4.67;;;4.27;;
14858;SDS011;7521;51.700;6.874;2023-08-06T11:44:29;5.37;;;4.87;;
14858;SDS011;7521;51.700;6.874;2023-08-06T11:47:37;5.83;;;5.33;;
14858;SDS011;7521;51.700;6.874;2023-08-06T11:50:42;6.90;;;6.20;;
14858;SDS011;7521;51.700;6.874;2023-08-06T11:53:51;7.43;;;6.68;;
14858;SDS011;7521;51.700;6.874;2023-08-06T11:56:56;7.53;;;6.83;;
14858;SDS011;7521;51.700;6.874;2023-08-06T12:00:04;7.83;;;7.07;;
14858;SDS011;7521;51.700;6.874;2023-08-06T12:03:10;5.50;;;5.00;;
14858;SDS011;7521;51.700;6.874;2023-08-06T12:06:15;6.82;;;4.30;;
14858;SDS011;7521;51.700;6.874;2023-08-06T12:09:20;4.90;;;3.83;;
14858;SDS011;7521;51.700;6.874;2023-08-06T12:12:26;4.43;;;3.70;;
14858;SDS011;7521;51.700;6.874;2023-08-06T12:15:31;3.53;;;3.20;;
14858;SDS011;7521;51.700;6.874;2023-08-06T12:18:36;2.53;;;2.33;;
14858;SDS011;7521;51.700;6.874;2023-08-06T12:21:41;2.37;;;1.77;;
14858;SDS011;7521;51.700;6.874;2023-08-06T12:24:46;2.83;;;1.20;;
14858;SDS011;7521;51.700;6.874;2023-08-06T12:27:52;4.20;;;0.80;;
14858;SDS011;7521;51.700;6.874;2023-08-06T12:30:57;0.70;;;0.52;;
14858;SDS011;7521;51.700;6.874;2023-08-06T12:34:02;2.25;;;0.50;;
14858;SDS011;7521;51.700;6.874;2023-08-06T12:37:10;1.02;;;0.50;;
14858;SDS011;7521;51.700;6.874;2023-08-06T12:40:15;0.40;;;0.30;;
14858;SDS011;7521;51.700;6.874;2023-08-06T12:43:20;1.77;;;0.33;;
14858;SDS011;7521;51.700;6.874;2023-08-06T12:46:25;0.65;;;0.50;;
14858;SDS011;7521;51.700;6.874;2023-08-06T12:49:30;0.40;;;0.25;;
14858;SDS011;7521;51.700;6.874;2023-08-06T12:52:38;1.70;;;0.33;;
14858;SDS011;7521;51.700;6.874;2023-08-06T12:55:43;2.45;;;0.52;;
14858;SDS011;7521;51.700;6.874;2023-08-06T12:58:48;0.80;;;0.50;;
14858;SDS011;7521;51.700;6.874;2023-08-06T13:01:53;0.70;;;0.40;;
14858;SDS011;7521;51.700;6.874;2023-08-06T13:04:58;1.38;;;0.30;;
14858;SDS011;7521;51.700;6.874;2023-08-06T13:08:03;1.70;;;0.68;;
14858;SDS011;7521;51.700;6.874;2023-08-06T13:11:09;0.70;;;0.40;;
14858;SDS011;7521;51.700;6.874;2023-08-06T13:14:14;1.03;;;0.70;;
14858;SDS011;7521;51.700;6.874;2023-08-06T13:17:19;0.77;;;0.60;;
14858;SDS011;7521;51.700;6.874;2023-08-06T13:20:24;0.88;;;0.60;;
14858;SDS011;7521;51.700;6.874;2023-08-06T13:23:30;1.02;;;0.40;;
14858;SDS011;7521;51.700;6.874;2023-08-06T13:26:35;0.90;;;0.60;;
14858;SDS011;7521;51.700;6.874;2023-08-06T13:29:40;0.90;;;0.80;;
14858;SDS011;7521;51.700;6.874;2023-08-06T13:32:46;0.50;;;0.50;;
14858;SDS011;7521;51.700;6.874;2023-08-06T13:35:51;0.63;;;0.50;;
14858;SDS011;7521;51.700;6.874;2023-08-06T13:38:56;0.50;;;0.40;;
14858;SDS011;7521;51.700;6.874;2023-08-06T13:42:01;0.80;;;0.60;;
14858;SDS011;7521;51.700;6.874;2023-08-06T13:45:07;0.80;;;0.50;;
14858;SDS011;7521;51.700;6.874;2023-08-06T13:48:12;1.73;;;0.50;;
14858;SDS011;7521;51.700;6.874;2023-08-06T13:51:17;0.87;;;0.60;;
14858;SDS011;7521;51.700;6.874;2023-08-06T13:54:23;0.97;;;0.60;;
14858;SDS011;7521;51.700;6.874;2023-08-06T13:57:28;0.73;;;0.63;;
14858;SDS011;7521;51.700;6.874;2023-08-06T14:00:33;0.60;;;0.50;;
14858;SDS011;7521;51.700;6.874;2023-08-06T14:03:38;1.40;;;0.67;;
14858;SDS011;7521;51.700;6.874;2023-08-06T14:06:44;1.83;;;0.60;;
14858;SDS011;7521;51.700;6.874;2023-08-06T14:09:49;0.90;;;0.70;;
14858;SDS011;7521;51.700;6.874;2023-08-06T14:12:54;1.35;;;0.80;;
14858;SDS011;7521;51.700;6.874;2023-08-06T14:15:59;0.80;;;0.80;;
14858;SDS011;7521;51.700;6.874;2023-08-06T14:19:04;0.95;;;0.77;;
14858;SDS011;7521;51.700;6.874;2023-08-06T14:22:10;1.10;;;1.00;;
14858;SDS011;7521;51.700;6.874;2023-08-06T14:25:15;1.27;;;0.80;;
14858;SDS011;7521;51.700;6.874;2023-08-06T14:28:20;1.30;;;1.00;;
14858;SDS011;7521;51.700;6.874;2023-08-06T14:31:25;1.27;;;0.85;;
14858;SDS011;7521;51.700;6.874;2023-08-06T14:34:30;1.17;;;0.80;;
14858;SDS011;7521;51.700;6.874;2023-08-06T14:37:35;0.93;;;0.70;;
14858;SDS011;7521;51.700;6.874;2023-08-06T14:40:41;8.25;;;1.00;;
14858;SDS011;7521;51.700;6.874;2023-08-06T14:43:46;2.53;;;1.13;;
14858;SDS011;7521;51.700;6.874;2023-08-06T14:46:51;1.30;;;0.90;;
14858;SDS011;7521;51.700;6.874;2023-08-06T14:49:56;1.38;;;1.15;;
14858;SDS011;7521;51.700;6.874;2023-08-06T14:53:02;1.88;;;1.30;;
14858;SDS011;7521;51.700;6.874;2023-08-06T14:56:07;1.17;;;0.90;;
14858;SDS011;7521;51.700;6.874;2023-08-06T14:59:12;1.60;;;1.13;;
14858;SDS011;7521;51.700;6.874;2023-08-06T15:02:18;1.83;;;1.17;;
14858;SDS011;7521;51.700;6.874;2023-08-06T15:05:24;1.63;;;1.10;;
14858;SDS011;7521;51.700;6.874;2023-08-06T15:08:29;1.30;;;1.20;;
14858;SDS011;7521;51.700;6.874;2023-08-06T15:11:34;2.60;;;1.10;;
14858;SDS011;7521;51.700;6.874;2023-08-06T15:14:39;1.47;;;1.20;;
14858;SDS011;7521;51.700;6.874;2023-08-06T15:17:44;1.97;;;1.20;;
14858;SDS011;7521;51.700;6.874;2023-08-06T15:20:50;1.73;;;1.20;;
14858;SDS011;7521;51.700;6.874;2023-08-06T15:23:55;2.15;;;1.50;;
14858;SDS011;7521;51.700;6.874;2023-08-06T15:27:00;1.45;;;1.27;;
14858;SDS011;7521;51.700;6.874;2023-08-06T15:30:06;2.00;;;1.40;;
14858;SDS011;7521;51.700;6.874;2023-08-06T15:33:11;2.03;;;1.50;;
14858;SDS011;7521;51.700;6.874;2023-08-06T15:36:16;2.25;;;1.30;;
14858;SDS011;7521;51.700;6.874;2023-08-06T15:39:21;2.22;;;1.42;;
14858;SDS011;7521;51.700;6.874;2023-08-06T15:42:29;2.53;;;1.70;;
14858;SDS011;7521;51.700;6.874;2023-08-06T15:45:34;2.07;;;1.70;;
14858;SDS011;7521;51.700;6.874;2023-08-06T15:48:39;2.38;;;2.03;;
14858;SDS011;7521;51.700;6.874;2023-08-06T15:51:44;3.73;;;2.27;;
14858;SDS011;7521;51.700;6.874;2023-08-06T15:54:50;3.47;;;1.90;;
14858;SDS011;7521;51.700;6.874;2023-08-06T15:57:55;3.97;;;2.10;;
14858;SDS011;7521;51.700;6.874;2023-08-06T16:01:00;4.30;;;2.63;;
14858;SDS011;7521;51.700;6.874;2023-08-06T16:04:05;3.83;;;2.30;;
14858;SDS011;7521;51.700;6.874;2023-08-06T16:07:10;4.53;;;3.30;;
14858;SDS011;7521;51.700;6.874;2023-08-06T16:10:16;5.22;;;2.70;;
14858;SDS011;7521;51.700;6.874;2023-08-06T16:13:21;4.07;;;3.33;;
14858;SDS011;7521;51.700;6.874;2023-08-06T16:16:26;3.53;;;2.95;;
14858;SDS011;7521;51.700;6.874;2023-08-06T16:19:31;5.00;;;3.55;;
14858;SDS011;7521;51.700;6.874;2023-08-06T16:22:36;5.03;;;3.28;;
14858;SDS011;7521;51.700;6.874;2023-08-06T16:25:41;6.30;;;3.65;;
14858;SDS011;7521;51.700;6.874;2023-08-06T16:28:50;4.70;;;3.87;;
14858;SDS011;7521;51.700;6.874;2023-08-06T16:31:55;5.37;;;3.50;;
14858;SDS011;7521;51.700;6.874;2023-08-06T16:35:02;4.90;;;3.87;;
14858;SDS011;7521;51.700;6.874;2023-08-06T16:38:08;8.17;;;4.60;;
14858;SDS011;7521;51.700;6.874;2023-08-06T16:41:13;5.77;;;3.83;;
14858;SDS011;7521;51.700;6.874;2023-08-06T16:44:18;7.27;;;4.43;;
14858;SDS011;7521;51.700;6.874;2023-08-06T16:47:23;5.43;;;4.47;;
14858;SDS011;7521;51.700;6.874;2023-08-06T16:50:29;4.75;;;4.30;;
14858;SDS011;7521;51.700;6.874;2023-08-06T16:53:34;5.95;;;4.57;;
14858;SDS011;7521;51.700;6.874;2023-08-06T16:56:39;7.53;;;4.80;;
14858;SDS011;7521;51.700;6.874;2023-08-06T16:59:44;9.05;;;4.82;;
14858;SDS011;7521;51.700;6.874;2023-08-06T17:02:50;6.23;;;4.50;;
14858;SDS011;7521;51.700;6.874;2023-08-06T17:05:56;5.20;;;4.70;;
14858;SDS011;7521;51.700;6.874;2023-08-06T17:09:01;5.60;;;4.20;;
14858;SDS011;7521;51.700;6.874;2023-08-06T17:12:08;8.30;;;4.67;;
14858;SDS011;7521;51.700;6.874;2023-08-06T17:15:13;7.67;;;4.23;;
14858;SDS011;7521;51.700;6.874;2023-08-06T17:18:18;5.37;;;4.07;;
14858;SDS011;7521;51.700;6.874;2023-08-06T17:21:24;5.50;;;4.47;;
14858;SDS011;7521;51.700;6.874;2023-08-06T17:24:29;7.07;;;4.27;;
14858;SDS011;7521;51.700;6.874;2023-08-06T17:27:34;5.63;;;4.13;;
14858;SDS011;7521;51.700;6.874;2023-08-06T17:30:40;6.22;;;3.97;;
14858;SDS011;7521;51.700;6.874;2023-08-06T17:33:45;4.13;;;3.73;;
14858;SDS011;7521;51.700;6.874;2023-08-06T17:36:50;6.25;;;3.47;;
14858;SDS011;7521;51.700;6.874;2023-08-06T17:39:56;4.15;;;2.20;;
14858;SDS011;7521;51.700;6.874;2023-08-06T17:43:01;4.60;;;1.87;;
14858;SDS011;7521;51.700;6.874;2023-08-06T17:46:06;4.93;;;1.83;;
14858;SDS011;7521;51.700;6.874;2023-08-06T17:49:11;3.33;;;1.37;;
14858;SDS011;7521;51.700;6.874;2023-08-06T17:52:17;4.97;;;1.20;;
14858;SDS011;7521;51.700;6.874;2023-08-06T17:55:22;3.73;;;1.20;;
14858;SDS011;7521;51.700;6.874;2023-08-06T17:58:27;4.33;;;0.90;;
14858;SDS011;7521;51.700;6.874;2023-08-06T18:01:32;1.83;;;0.87;;
14858;SDS011;7521;51.700;6.874;2023-08-06T18:04:38;3.60;;;1.27;;
14858;SDS011;7521;51.700;6.874;2023-08-06T18:07:43;2.75;;;1.00;;
14858;SDS011;7521;51.700;6.874;2023-08-06T18:10:50;4.90;;;1.50;;
14858;SDS011;7521;51.700;6.874;2023-08-06T18:13:55;5.03;;;0.90;;
14858;SDS011;7521;51.700;6.874;2023-08-06T18:17:00;5.15;;;1.15;;
14858;SDS011;7521;51.700;6.874;2023-08-06T18:20:06;5.17;;;1.10;;
14858;SDS011;7521;51.700;6.874;2023-08-06T18:23:11;3.17;;;1.30;;
14858;SDS011;7521;51.700;6.874;2023-08-06T18:26:16;5.07;;;1.37;;
14858;SDS011;7521;51.700;6.874;2023-08-06T18:29:21;7.43;;;1.13;;
14858;SDS011;7521;51.700;6.874;2023-08-06T18:32:26;5.25;;;1.15;;
14858;SDS011;7521;51.700;6.874;2023-08-06T18:35:32;4.73;;;1.20;;
14858;SDS011;7521;51.700;6.874;2023-08-06T18:38:37;6.75;;;1.23;;
14858;SDS011;7521;51.700;6.874;2023-08-06T18:41:42;6.13;;;1.30;;
14858;SDS011;7521;51.700;6.874;2023-08-06T18:44:48;5.80;;;1.17;;
14858;SDS011;7521;51.700;6.874;2023-08-06T18:47:53;2.67;;;0.80;;
14858;SDS011;7521;51.700;6.874;2023-08-06T18:50:58;5.97;;;1.10;;
14858;SDS011;7521;51.700;6.874;2023-08-06T18:54:04;4.63;;;0.80;;
14858;SDS011;7521;51.700;6.874;2023-08-06T18:57:09;3.30;;;0.93;;